Time;durP1;ratioP1;P1;durP2;ratioP2;P2;SDS_P1;SDS_P2;PMS_P1;PMS_P2;Temp;Humidity;BMP_temperature;BMP_pressure;BME280_temperature;BME280_humidity;BME280_pressure;Samples;Min_cycle;Max_cycle;Signal;HPM_P1;HPM_P2
2022/02/18 00:00:09;;;;;;;7.74;7.01;;;;;;;6.82;65.25;99213.74;457191;114;923125;-78
2022/02/18 00:01:16;;;;;;;7.90;7.14;;;;;;;6.82;65.29;99219.16;456239;115;922978;-76
2022/02/18 00:02:19;;;;;;;9.02;8.12;;;;;;;6.83;65.27;99215.41;449928;117;923305;-77
2022/02/18 00:03:25;;;;;;;8.73;7.83;;;;;;;6.84;65.25;99227.05;454311;115;923028;-77
2022/02/18 00:04:28;;;;;;;9.17;8.28;;;;;;;6.84;65.25;99217.03;452546;116;922530;-80
2022/02/18 00:05:31;;;;;;;9.39;7.55;;;;;;;6.86;65.24;99223.07;452778;116;923437;-78
2022/02/18 00:06:34;;;;;;;8.01;7.09;;;;;;;6.88;65.18;99223.69;454323;116;923038;-77
2022/02/18 00:07:37;;;;;;;8.55;7.64;;;;;;;6.88;65.15;99226.40;453180;115;923058;-76
2022/02/18 00:08:40;;;;;;;9.54;8.11;;;;;;;6.89;65.22;99224.52;448188;116;922675;-77
2022/02/18 00:09:43;;;;;;;8.36;7.51;;;;;;;6.89;65.23;99222.61;457606;115;922624;-77
2022/02/18 00:10:47;;;;;;;12.75;7.75;;;;;;;6.91;65.24;99227.81;456264;114;923572;-77
2022/02/18 00:11:51;;;;;;;9.08;8.15;;;;;;;6.91;65.27;99217.81;457835;115;922824;-77
2022/02/18 00:12:54;;;;;;;8.83;7.91;;;;;;;6.91;65.33;99223.23;452790;116;923173;-76
2022/02/18 00:13:57;;;;;;;8.30;7.44;;;;;;;6.93;65.37;99225.72;444412;117;922592;-77
2022/02/18 00:15:01;;;;;;;8.78;7.97;;;;;;;6.92;65.42;99216.76;452249;116;923456;-77
2022/02/18 00:16:04;;;;;;;9.38;8.57;;;;;;;6.93;65.46;99221.13;452393;115;923067;-77
2022/02/18 00:17:07;;;;;;;9.19;8.36;;;;;;;6.93;65.48;99214.88;443171;117;930673;-78
2022/02/18 00:18:10;;;;;;;8.85;7.96;;;;;;;6.94;65.61;99219.25;452884;117;922558;-78
2022/02/18 00:19:13;;;;;;;10.35;8.77;;;;;;;6.95;65.66;99219.00;452194;116;922569;-78
2022/02/18 00:20:17;;;;;;;10.46;8.34;;;;;;;6.96;65.66;99214.42;443223;119;923074;-78
2022/02/18 00:21:20;;;;;;;9.43;8.54;;;;;;;6.96;65.71;99226.09;452702;117;922464;-80
2022/02/18 00:22:24;;;;;;;10.07;8.31;;;;;;;6.96;65.74;99220.67;452666;117;922901;-78
2022/02/18 00:23:27;;;;;;;9.86;8.66;;;;;;;6.98;65.80;99223.99;445458;117;930401;-77
2022/02/18 00:24:30;;;;;;;8.94;8.05;;;;;;;7.00;65.83;99218.36;447189;117;930488;-78
2022/02/18 00:25:35;;;;;;;9.28;7.06;;;;;;;7.01;65.76;99218.11;448721;116;922405;-76
2022/02/18 00:26:38;;;;;;;10.58;8.99;;;;;;;7.01;65.79;99223.53;448312;117;922494;-77
2022/02/18 00:27:41;;;;;;;9.49;8.66;;;;;;;7.01;65.83;99215.40;444405;117;923450;-77
2022/02/18 00:28:45;;;;;;;9.68;8.77;;;;;;;7.01;65.86;99207.27;443795;117;922711;-78
2022/02/18 00:29:50;;;;;;;9.65;8.63;;;;;;;6.99;65.99;99214.81;443573;119;923089;-77
2022/02/18 00:30:53;;;;;;;9.32;8.39;;;;;;;7.01;66.10;99219.98;443715;119;923306;-78
2022/02/18 00:31:56;;;;;;;12.26;9.64;;;;;;;7.01;66.15;99204.56;443752;119;922626;-77
2022/02/18 00:33:00;;;;;;;10.92;8.56;;;;;;;7.01;66.22;99217.28;443611;119;922711;-78
2022/02/18 00:34:04;;;;;;;10.74;8.44;;;;;;;7.00;66.23;99202.90;443834;118;922679;-77
2022/02/18 00:35:08;;;;;;;9.92;8.23;;;;;;;7.00;66.32;99208.31;436307;119;922608;-77
2022/02/18 00:36:12;;;;;;;8.55;7.38;;;;;;;7.01;66.37;99206.44;435665;117;922568;-77
2022/02/18 00:37:18;;;;;;;9.51;8.59;;;;;;;7.01;66.49;99209.15;443314;119;923279;-78
2022/02/18 00:38:21;;;;;;;8.82;7.96;;;;;;;7.00;66.56;99202.10;443449;119;923205;-77
2022/02/18 00:39:25;;;;;;;9.26;8.39;;;;;;;6.98;66.70;99194.19;444043;117;930595;-77
2022/02/18 00:40:31;;;;;;;11.54;8.81;;;;;;;6.96;66.84;99198.16;443559;117;923060;-77
2022/02/18 00:41:34;;;;;;;9.12;8.01;;;;;;;6.94;66.95;99200.28;442472;119;923042;-78
2022/02/18 00:42:39;;;;;;;11.65;8.59;;;;;;;6.91;67.06;99201.55;442995;117;922788;-76
2022/02/18 00:43:42;;;;;;;8.51;7.71;;;;;;;6.91;67.28;99192.59;443426;117;930597;-78
2022/02/18 00:44:46;;;;;;;8.57;7.76;;;;;;;6.90;67.40;99197.17;443492;119;923461;-77
2022/02/18 00:45:50;;;;;;;10.48;9.16;;;;;;;6.90;67.45;99199.89;442750;119;923150;-77
2022/02/18 00:46:53;;;;;;;9.18;8.28;;;;;;;6.90;67.52;99189.05;443228;117;922758;-77
2022/02/18 00:47:56;;;;;;;9.11;8.28;;;;;;;6.92;67.54;99196.96;442996;117;923220;-77
2022/02/18 00:49:00;;;;;;;9.43;8.53;;;;;;;6.92;67.51;99192.37;443665;119;922736;-77
2022/02/18 00:50:03;;;;;;;9.59;8.67;;;;;;;6.93;67.54;99188.62;452404;115;922645;-76
2022/02/18 00:51:07;;;;;;;10.09;9.11;;;;;;;6.94;67.55;99182.16;444378;118;930639;-76
2022/02/18 00:52:10;;;;;;;9.00;8.22;;;;;;;6.95;67.51;99185.66;445538;117;922548;-77
2022/02/18 00:53:14;;;;;;;9.81;8.18;;;;;;;6.95;67.49;99189.20;451048;117;930976;-77
2022/02/18 00:54:19;;;;;;;9.28;8.32;;;;;;;6.96;67.48;99182.73;452176;117;922633;-78
2022/02/18 00:55:22;;;;;;;10.42;8.99;;;;;;;6.97;67.46;99178.14;452425;116;922643;-77
2022/02/18 00:56:25;;;;;;;11.61;9.71;;;;;;;6.96;67.40;99177.31;452513;115;922787;-78
2022/02/18 00:57:30;;;;;;;9.84;8.93;;;;;;;6.94;67.46;99186.73;452966;117;922769;-77
2022/02/18 00:58:33;;;;;;;11.33;8.71;;;;;;;6.93;67.54;99179.66;452761;116;922633;-77
2022/02/18 00:59:37;;;;;;;9.84;8.49;;;;;;;6.91;67.55;99173.62;452110;116;922706;-77
2022/02/18 01:00:41;;;;;;;10.86;9.90;;;;;;;6.90;67.60;99167.38;452492;117;923060;-78
2022/02/18 01:01:44;;;;;;;10.01;8.73;;;;;;;6.90;67.67;99172.80;452682;117;922667;-78
2022/02/18 01:02:48;;;;;;;11.81;9.07;;;;;;;6.91;67.78;99171.75;452489;116;924041;-77
2022/02/18 01:03:51;;;;;;;10.45;9.49;;;;;;;6.92;67.74;99172.58;451127;116;930495;-77
2022/02/18 01:04:54;;;;;;;11.71;8.66;;;;;;;6.92;67.88;99167.16;452061;116;931073;-76
2022/02/18 01:05:57;;;;;;;10.13;9.03;;;;;;;6.93;67.81;99166.11;452989;117;922670;-76
2022/02/18 01:07:01;;;;;;;10.63;9.18;;;;;;;6.92;67.87;99157.16;452657;115;922548;-78
2022/02/18 01:08:05;;;;;;;10.23;8.63;;;;;;;6.92;67.91;99167.98;452693;116;923726;-78
2022/02/18 01:09:08;;;;;;;10.34;9.35;;;;;;;6.92;68.03;99170.70;452748;115;930563;-78
2022/02/18 01:10:12;;;;;;;9.81;8.66;;;;;;;6.92;68.03;99156.31;452122;117;930670;-76
2022/02/18 01:11:16;;;;;;;9.99;8.97;;;;;;;6.91;68.18;99160.08;452131;115;922703;-77
2022/02/18 01:12:20;;;;;;;10.15;9.02;;;;;;;6.90;68.15;99167.38;452020;116;923149;-78
2022/02/18 01:13:23;;;;;;;9.86;8.69;;;;;;;6.92;68.17;99164.45;445515;118;923328;-77
2022/02/18 01:14:26;;;;;;;10.32;9.34;;;;;;;6.91;68.13;99169.03;445176;117;922648;-77
2022/02/18 01:15:29;;;;;;;13.71;9.41;;;;;;;6.90;68.17;99169.25;443796;118;922780;-77
2022/02/18 01:16:33;;;;;;;9.83;8.88;;;;;;;6.89;68.22;99160.30;449588;116;922581;-78
2022/02/18 01:17:36;;;;;;;11.34;8.98;;;;;;;6.90;68.18;99166.55;449609;116;922519;-78
2022/02/18 01:18:41;;;;;;;11.51;10.36;;;;;;;6.89;68.28;99167.63;443104;118;930601;-77
2022/02/18 01:19:46;;;;;;;10.88;9.58;;;;;;;6.90;68.33;99166.55;454567;112;923080;-78
2022/02/18 01:20:49;;;;;;;14.23;9.95;;;;;;;6.89;68.23;99159.49;462163;113;922640;-78
2022/02/18 01:21:52;;;;;;;12.12;9.11;;;;;;;6.90;68.23;99172.80;455050;115;923085;-78
2022/02/18 01:22:57;;;;;;;10.47;9.21;;;;;;;6.90;68.25;99161.13;454321;113;922586;-78
2022/02/18 01:24:03;;;;;;;11.06;9.91;;;;;;;6.90;68.25;99169.25;462944;112;923049;-77
2022/02/18 01:25:13;;;;;;;10.85;9.58;;;;;;;6.89;68.16;99163.00;462884;113;922626;-78
2022/02/18 01:26:14;;;;;;;10.13;9.07;;;;;;;6.89;68.13;99168.42;462680;113;923187;-78
2022/02/18 01:27:18;;;;;;;11.24;9.59;;;;;;;6.90;68.20;99164.66;462848;113;922668;-78
2022/02/18 01:28:21;;;;;;;11.10;9.99;;;;;;;6.90;68.19;99164.66;463342;113;922645;-78
2022/02/18 01:29:24;;;;;;;13.26;11.75;;;;;;;6.91;68.19;99151.95;462394;113;922749;-77
2022/02/18 01:30:28;;;;;;;12.82;9.94;;;;;;;6.91;68.23;99160.91;463428;113;923713;-78
2022/02/18 01:31:31;;;;;;;12.12;10.23;;;;;;;6.93;68.33;99158.81;463282;113;922662;-78
2022/02/18 01:32:34;;;;;;;11.60;9.83;;;;;;;6.93;68.44;99156.10;464022;113;923285;-77
2022/02/18 01:33:37;;;;;;;16.81;10.81;;;;;;;6.96;68.50;99150.22;463622;113;923174;-77
2022/02/18 01:34:41;;;;;;;10.23;9.17;;;;;;;6.96;68.64;99150.22;463201;113;922688;-76
2022/02/18 01:35:45;;;;;;;10.74;9.66;;;;;;;6.97;68.73;99138.33;463328;112;922630;-78
2022/02/18 01:36:49;;;;;;;12.92;10.75;;;;;;;6.97;68.57;99143.75;463702;113;922681;-77
2022/02/18 01:37:53;;;;;;;10.48;9.48;;;;;;;6.95;68.57;99137.72;463607;112;922478;-77
2022/02/18 01:38:56;;;;;;;10.66;9.59;;;;;;;6.94;68.65;99140.67;463584;112;922519;-77
2022/02/18 01:39:59;;;;;;;12.51;9.63;;;;;;;6.92;68.59;99143.60;463739;113;922585;-78
2022/02/18 01:41:03;;;;;;;12.24;10.21;;;;;;;6.91;68.73;99146.53;463390;113;922709;-78
2022/02/18 01:42:06;;;;;;;11.00;10.01;;;;;;;6.91;68.79;99132.98;462764;113;923041;-77
2022/02/18 01:43:09;;;;;;;12.50;11.29;;;;;;;6.91;68.84;99139.23;464165;112;922514;-76
2022/02/18 01:44:17;;;;;;;12.52;9.97;;;;;;;6.91;68.91;99139.23;463204;113;922761;-78
2022/02/18 01:45:20;;;;;;;11.46;10.22;;;;;;;6.91;68.91;99139.23;457644;112;930320;-78
2022/02/18 01:46:24;;;;;;;11.85;10.76;;;;;;;6.91;68.88;99131.11;462076;113;922735;-76
2022/02/18 01:47:27;;;;;;;10.96;9.94;;;;;;;6.91;68.87;99135.69;461554;112;930256;-78
2022/02/18 01:48:30;;;;;;;10.83;9.43;;;;;;;6.89;68.89;99135.91;462471;113;922623;-78
2022/02/18 01:49:33;;;;;;;9.94;9.07;;;;;;;6.90;68.85;99142.16;462479;113;923023;-77
2022/02/18 01:50:37;;;;;;;10.71;9.44;;;;;;;6.88;68.87;99136.98;462538;112;923068;-78
2022/02/18 01:51:40;;;;;;;11.09;10.07;;;;;;;6.88;68.89;99138.87;462280;112;923400;-78
2022/02/18 01:52:47;;;;;;;12.19;9.78;;;;;;;6.89;68.87;99140.53;462761;112;923247;-77
2022/02/18 01:53:51;;;;;;;13.73;9.12;;;;;;;6.88;68.93;99133.45;461883;112;922690;-78
2022/02/18 01:54:55;;;;;;;11.07;10.03;;;;;;;6.86;68.91;99139.09;461882;113;923065;-77
2022/02/18 01:55:58;;;;;;;11.71;10.55;;;;;;;6.86;68.91;99130.95;462425;113;922512;-77
2022/02/18 01:57:02;;;;;;;11.48;10.37;;;;;;;6.87;68.96;99126.38;463051;113;925740;-78
2022/02/18 01:58:06;;;;;;;11.71;10.58;;;;;;;6.87;69.01;99134.50;462369;113;923121;-78
2022/02/18 01:59:09;;;;;;;11.08;10.02;;;;;;;6.86;68.97;99133.67;462874;112;930030;-78
2022/02/18 02:00:15;;;;;;;10.88;9.82;;;;;;;6.84;68.90;99127.63;462435;113;930243;-75
2022/02/18 02:01:18;;;;;;;12.04;10.57;;;;;;;6.83;69.02;99136.84;463343;113;930202;-75
2022/02/18 02:02:22;;;;;;;14.26;10.64;;;;;;;6.85;69.11;99125.76;463769;113;922707;-76
2022/02/18 02:03:25;;;;;;;13.00;10.43;;;;;;;6.85;69.09;99121.17;461981;112;922603;-78
2022/02/18 02:04:29;;;;;;;11.36;9.68;;;;;;;6.85;69.09;99123.87;462464;113;930477;-77
2022/02/18 02:05:32;;;;;;;12.40;11.05;;;;;;;6.87;69.10;99126.38;463244;113;922999;-76
2022/02/18 02:06:35;;;;;;;11.63;10.48;;;;;;;6.86;69.05;99117.41;462841;113;922593;-76
2022/02/18 02:07:40;;;;;;;11.73;10.56;;;;;;;6.87;69.12;99116.36;463004;112;922953;-78
2022/02/18 02:08:43;;;;;;;12.88;11.53;;;;;;;6.87;69.09;99129.91;464100;113;922860;-77
2022/02/18 02:09:48;;;;;;;12.17;10.47;;;;;;;6.87;69.08;99129.08;456380;114;930567;-75
2022/02/18 02:10:51;;;;;;;15.36;10.34;;;;;;;6.89;69.14;99124.27;446126;117;922933;-77
2022/02/18 02:11:55;;;;;;;12.41;11.13;;;;;;;6.90;69.14;99134.86;444629;118;922572;-77
2022/02/18 02:12:58;;;;;;;13.36;12.04;;;;;;;6.91;69.12;99122.14;444212;118;922564;-74
2022/02/18 02:14:09;;;;;;;;;;;;;;;6.92;69.13;99129.23;451897;117;922119;-75
2022/02/18 02:15:14;;;;;;;12.85;11.55;;;;;;;6.92;69.12;99130.05;448611;117;922764;-77
2022/02/18 02:16:18;;;;;;;14.86;11.57;;;;;;;6.91;69.14;99125.69;448552;117;922536;-76
2022/02/18 02:17:21;;;;;;;11.94;10.77;;;;;;;6.89;69.16;99127.78;448587;117;930486;-75
2022/02/18 02:18:25;;;;;;;13.13;10.73;;;;;;;6.89;69.18;99135.91;447927;117;922665;-75
2022/02/18 02:19:30;;;;;;;13.28;11.84;;;;;;;6.89;69.21;99133.20;442387;119;922682;-75
2022/02/18 02:20:33;;;;;;;13.43;12.13;;;;;;;6.89;69.25;99138.62;443417;117;922563;-76
2022/02/18 02:21:37;;;;;;;14.04;11.44;;;;;;;6.89;69.28;99138.62;449360;117;923068;-76
2022/02/18 02:22:41;;;;;;;14.27;12.16;;;;;;;6.89;69.24;99144.03;448449;117;923246;-75
2022/02/18 02:23:44;;;;;;;13.06;11.68;;;;;;;6.89;69.25;99130.49;449761;117;922698;-78
2022/02/18 02:24:49;;;;;;;12.06;10.87;;;;;;;6.89;69.24;99135.91;449845;117;922873;-75
2022/02/18 02:25:53;;;;;;;13.94;12.13;;;;;;;6.90;69.35;99134.86;448583;117;923479;-75
2022/02/18 02:26:58;;;;;;;12.24;11.04;;;;;;;6.90;69.26;99131.32;448983;117;930402;-76
2022/02/18 02:28:01;;;;;;;12.73;10.69;;;;;;;6.91;69.24;99138.41;449376;117;922712;-75
2022/02/18 02:29:06;;;;;;;10.93;9.84;;;;;;;6.93;69.30;99144.44;448584;117;922738;-76
2022/02/18 02:30:11;;;;;;;11.56;10.38;;;;;;;6.93;69.30;99139.84;449629;117;922809;-76
2022/02/18 02:31:14;;;;;;;13.01;11.70;;;;;;;6.93;69.34;99133.59;449279;117;922686;-75
2022/02/18 02:32:18;;;;;;;12.23;11.16;;;;;;;6.96;69.35;99133.95;448768;117;923317;-76
2022/02/18 02:33:22;;;;;;;12.97;10.64;;;;;;;6.98;69.34;99134.57;449872;117;922474;-76
2022/02/18 02:34:26;;;;;;;12.88;11.18;;;;;;;6.99;69.30;99136.23;449831;117;922999;-76
2022/02/18 02:35:29;;;;;;;14.83;12.33;;;;;;;7.00;69.29;99127.02;446014;117;923304;-76
2022/02/18 02:36:35;;;;;;;16.10;11.53;;;;;;;7.00;69.29;99135.16;448363;117;922907;-75
2022/02/18 02:37:38;;;;;;;13.29;11.55;;;;;;;7.00;69.28;99140.57;449498;117;922836;-77
2022/02/18 02:38:44;;;;;;;12.72;11.43;;;;;;;7.03;69.28;99139.30;445314;117;923115;-77
2022/02/18 02:39:47;;;;;;;13.54;11.51;;;;;;;7.01;69.31;99142.23;456709;115;922610;-75
2022/02/18 02:40:52;;;;;;;13.54;11.99;;;;;;;7.01;69.36;99146.83;456932;114;922628;-78
2022/02/18 02:41:57;;;;;;;13.21;11.86;;;;;;;7.00;69.45;99140.57;456558;115;922756;-76
2022/02/18 02:43:01;;;;;;;14.39;12.20;;;;;;;6.98;69.57;99139.98;456678;114;922547;-76
2022/02/18 02:44:04;;;;;;;11.95;10.85;;;;;;;6.99;69.60;99135.41;457965;115;922726;-76
2022/02/18 02:45:08;;;;;;;12.34;11.11;;;;;;;6.99;69.58;99136.23;456543;114;922524;-77
2022/02/18 02:46:14;;;;;;;13.45;11.74;;;;;;;6.99;69.67;99138.94;457492;115;922759;-76
2022/02/18 02:47:17;;;;;;;14.87;11.18;;;;;;;6.99;69.72;99128.11;457572;115;922948;-76
2022/02/18 02:48:22;;;;;;;16.41;12.27;;;;;;;7.00;69.79;99132.44;457514;115;922574;-76
2022/02/18 02:49:28;;;;;;;15.97;13.37;;;;;;;7.02;69.75;99133.05;456240;115;922995;-76
2022/02/18 02:50:32;;;;;;;15.87;11.56;;;;;;;7.04;69.76;99138.25;457795;115;922939;-76
2022/02/18 02:51:38;;;;;;;14.17;12.70;;;;;;;7.05;69.72;99137.20;457368;115;923279;-75
2022/02/18 02:52:42;;;;;;;17.23;13.19;;;;;;;7.03;69.66;99134.72;456001;115;922569;-75
2022/02/18 02:53:45;;;;;;;16.32;12.76;;;;;;;7.03;69.70;99133.89;448190;117;923080;-74
2022/02/18 02:54:49;;;;;;;14.66;12.71;;;;;;;7.01;69.75;99131.39;452537;116;922863;-76
2022/02/18 02:55:52;;;;;;;15.38;12.70;;;;;;;7.01;69.81;99131.39;449210;117;922674;-76
2022/02/18 02:56:56;;;;;;;17.54;13.96;;;;;;;7.00;69.83;99129.73;457373;115;922585;-76
2022/02/18 02:58:02;;;;;;;18.15;14.21;;;;;;;7.01;69.87;99127.85;447882;116;922498;-77
2022/02/18 02:59:06;;;;;;;20.46;15.05;;;;;;;7.01;69.91;99131.39;449554;116;922533;-77
2022/02/18 03:00:13;;;;;;;21.68;15.92;;;;;;;7.01;69.92;99128.69;451274;116;922628;-75
2022/02/18 03:01:16;;;;;;;28.34;17.35;;;;;;;7.04;69.92;99130.13;449379;116;922745;-75
2022/02/18 03:02:21;;;;;;;26.73;17.74;;;;;;;7.05;69.91;99145.34;449817;115;923242;-77
2022/02/18 03:03:26;;;;;;;26.11;18.56;;;;;;;7.06;69.87;99136.12;451346;115;922706;-76
2022/02/18 03:04:32;;;;;;;25.47;17.32;;;;;;;7.06;69.82;99139.67;452623;114;930971;-76
2022/02/18 03:05:35;;;;;;;26.93;18.69;;;;;;;7.06;69.86;99141.55;443712;119;922833;-76
2022/02/18 03:06:39;;;;;;;27.03;17.19;;;;;;;7.07;69.80;99157.59;446203;117;922569;-76
2022/02/18 03:07:42;;;;;;;33.90;19.64;;;;;;;7.08;69.82;99148.41;445099;117;930245;-77
2022/02/18 03:08:53;;;;;;;34.27;20.06;;;;;;;7.08;69.86;99145.70;450037;116;930799;-75
2022/02/18 03:09:58;;;;;;;33.74;20.96;;;;;;;7.08;70.00;99153.00;445121;115;923260;-76
2022/02/18 03:11:14;;;;;;;42.14;22.59;;;;;;;7.07;70.15;99154.05;454207;116;922476;-76
2022/02/18 03:12:19;;;;;;;38.24;22.30;;;;;;;7.05;70.30;99148.05;454023;115;922546;-75
2022/02/18 03:13:24;;;;;;;41.40;23.66;;;;;;;7.03;70.66;99163.70;452869;117;922654;-74
2022/02/18 03:14:28;;;;;;;36.03;23.03;;;;;;;7.01;71.00;99152.24;453440;116;922703;-76
2022/02/18 03:15:33;;;;;;;40.23;22.86;;;;;;;7.01;71.24;99153.07;457350;114;930617;-76
2022/02/18 03:16:38;;;;;;;41.33;23.92;;;;;;;7.00;71.42;99145.99;457249;114;923014;-77
2022/02/18 03:17:41;;;;;;;42.04;22.61;;;;;;;7.03;71.46;99153.69;457694;114;922665;-76
2022/02/18 03:19:04;;;;;;;36.88;21.85;;;;;;;7.03;71.41;99150.14;453491;116;923544;-76
2022/02/18 03:20:08;;;;;;;40.35;23.20;;;;;;;7.03;71.47;99150.98;459062;114;922594;-76
2022/02/18 03:21:13;;;;;;;37.92;22.20;;;;;;;7.04;71.51;99149.09;458380;114;922543;-76
2022/02/18 03:22:19;;;;;;;38.86;21.71;;;;;;;7.04;71.61;99152.64;451929;116;923669;-75
2022/02/18 03:23:22;;;;;;;40.88;22.31;;;;;;;7.05;71.62;99146.17;453204;114;922648;-76
2022/02/18 03:24:26;;;;;;;36.14;22.36;;;;;;;7.04;71.69;99152.64;454172;115;922627;-76
2022/02/18 03:25:30;;;;;;;42.73;24.10;;;;;;;7.03;71.83;99148.27;454869;115;922656;-76
2022/02/18 03:26:34;;;;;;;35.73;21.67;;;;;;;7.03;72.02;99148.27;455139;115;930552;-75
2022/02/18 03:27:42;;;;;;;40.73;22.74;;;;;;;7.03;72.19;99145.55;454019;115;930870;-76
2022/02/18 03:28:44;;;;;;;40.49;24.08;;;;;;;7.04;72.18;99143.67;451031;116;922580;-75
2022/02/18 03:29:49;;;;;;;39.49;22.92;;;;;;;7.04;72.14;99141.80;448923;114;922881;-75
2022/02/18 03:30:59;;;;;;;44.02;24.53;;;;;;;7.04;72.09;99140.97;457429;114;922956;-75
2022/02/18 03:32:05;;;;;;;42.70;24.80;;;;;;;7.05;72.00;99148.05;452856;116;922575;-76
2022/02/18 03:33:11;;;;;;;45.95;26.19;;;;;;;7.04;72.14;99144.50;454007;116;922655;-77
2022/02/18 03:34:15;;;;;;;52.56;25.66;;;;;;;7.04;72.18;99144.50;453011;116;923584;-77
2022/02/18 03:35:18;;;;;;;42.12;24.55;;;;;;;7.05;72.14;99142.63;453202;115;922655;-78
2022/02/18 03:36:22;;;;;;;37.59;23.29;;;;;;;7.05;72.09;99150.76;452715;116;931071;-76
2022/02/18 03:37:26;;;;;;;41.61;24.55;;;;;;;7.04;72.05;99151.80;457407;114;922671;-76
2022/02/18 03:38:32;;;;;;;46.69;26.23;;;;;;;7.01;72.14;99153.07;450735;115;923182;-76
2022/02/18 03:39:35;;;;;;;40.86;25.29;;;;;;;7.00;72.30;99151.41;450339;117;922758;-75
2022/02/18 03:40:38;;;;;;;37.98;23.94;;;;;;;7.00;72.36;99156.83;449404;117;922690;-76
2022/02/18 03:41:43;;;;;;;32.56;21.58;;;;;;;7.00;72.28;99164.96;452107;115;922536;-77
2022/02/18 03:42:47;;;;;;;32.84;20.86;;;;;;;6.98;72.27;99153.54;446584;118;922780;-75
2022/02/18 03:43:50;;;;;;;25.61;20.26;;;;;;;6.99;72.37;99157.08;451714;116;922859;-76
2022/02/18 03:44:57;;;;;;;26.66;17.71;;;;;;;6.99;72.47;99155.20;458061;114;922558;-77
2022/02/18 03:46:02;;;;;;;24.22;16.55;;;;;;;6.99;72.44;99157.91;453489;115;922559;-76
2022/02/18 03:47:06;;;;;;;24.29;17.05;;;;;;;7.00;72.51;99162.25;453342;116;922696;-76
2022/02/18 03:48:09;;;;;;;21.41;16.34;;;;;;;7.00;72.56;99156.83;453047;116;923685;-77
2022/02/18 03:49:16;;;;;;;21.51;15.83;;;;;;;7.01;72.55;99157.66;452192;116;923241;-76
2022/02/18 03:50:21;;;;;;;21.35;15.15;;;;;;;7.00;72.64;99162.25;454418;116;922713;-75
2022/02/18 03:51:25;;;;;;;20.40;13.78;;;;;;;7.00;72.70;99162.25;445142;116;923113;-75
2022/02/18 03:52:29;;;;;;;17.01;14.12;;;;;;;7.01;72.68;99155.78;445443;116;930725;-75
2022/02/18 03:53:32;;;;;;;21.73;13.17;;;;;;;7.01;72.75;99161.20;454864;116;930407;-76
2022/02/18 03:54:48;;;;;;;21.44;12.91;;;;;;;7.03;72.73;99160.98;453909;115;923154;-76
2022/02/18 03:55:51;;;;;;;16.91;13.92;;;;;;;7.03;72.73;99158.27;453160;115;922998;-76
2022/02/18 03:56:55;;;;;;;13.38;12.11;;;;;;;7.01;72.69;99157.66;457257;115;923078;-74
2022/02/18 03:57:59;;;;;;;14.91;13.37;;;;;;;7.00;72.73;99162.25;453300;114;922486;-76
2022/02/18 03:59:05;;;;;;;15.03;12.72;;;;;;;7.00;72.81;99158.74;457640;114;923021;-75
2022/02/18 04:00:10;;;;;;;15.45;11.81;;;;;;;7.01;72.89;99163.08;452530;116;922601;-74
2022/02/18 04:01:16;;;;;;;13.76;12.12;;;;;;;7.01;72.92;99163.91;452606;116;922589;-75
2022/02/18 04:02:19;;;;;;;13.69;12.29;;;;;;;7.03;72.94;99161.81;453384;114;923080;-74
2022/02/18 04:03:23;;;;;;;14.26;12.86;;;;;;;7.03;72.93;99164.53;453252;116;922686;-75
2022/02/18 04:04:33;;;;;;;;;;;;;;;7.04;72.90;99158.05;449719;116;922526;-74
2022/02/18 04:05:44;;;;;;;;;;;;;;;7.05;72.91;99154.30;452710;115;921662;-76
2022/02/18 04:06:49;;;;;;;15.47;12.29;;;;;;;7.04;72.93;99155.34;457151;114;922328;-74
2022/02/18 04:07:57;;;;;;;15.02;12.63;;;;;;;7.01;72.96;99160.38;451088;115;922585;-77
2022/02/18 04:09:00;;;;;;;16.61;12.45;;;;;;;6.99;73.00;99157.91;459194;114;922632;-75
2022/02/18 04:10:14;;;;;;;17.42;13.23;;;;;;;6.98;72.94;99152.70;451957;116;922613;-74
2022/02/18 04:11:18;;;;;;;14.35;12.90;;;;;;;6.95;72.89;99164.81;448039;117;923039;-77
2022/02/18 04:12:21;;;;;;;15.74;14.01;;;;;;;6.93;73.04;99166.94;451189;115;929298;-76
2022/02/18 04:13:26;;;;;;;14.63;13.19;;;;;;;6.94;73.15;99162.35;449146;116;923115;-76
2022/02/18 04:14:31;;;;;;;14.23;12.82;;;;;;;6.94;73.21;99165.89;452578;116;923070;-77
2022/02/18 04:15:36;;;;;;;14.33;12.34;;;;;;;6.95;73.21;99159.39;467240;112;922652;-74
2022/02/18 04:16:40;;;;;;;16.22;12.41;;;;;;;6.97;73.15;99157.30;457604;114;922613;-79
2022/02/18 04:17:45;;;;;;;14.23;12.57;;;;;;;6.97;73.07;99159.17;459137;114;922728;-75
2022/02/18 04:18:56;;;;;;;15.48;13.19;;;;;;;6.97;73.14;99160.01;465841;112;922559;-76
2022/02/18 04:19:58;;;;;;;14.92;13.46;;;;;;;6.97;73.11;99154.59;468436;111;922618;-76
2022/02/18 04:21:05;;;;;;;16.87;13.78;;;;;;;6.98;73.06;99156.25;464895;112;922591;-76
2022/02/18 04:22:22;;;;;;;21.90;16.06;;;;;;;6.99;73.05;99154.37;453242;115;923183;-76
2022/02/18 04:23:25;;;;;;;18.94;15.84;;;;;;;7.00;73.06;99150.61;458467;112;922796;-75
2022/02/18 04:24:29;;;;;;;22.58;17.61;;;;;;;7.01;73.07;99157.66;465970;111;930604;-75
2022/02/18 04:25:32;;;;;;;30.44;18.94;;;;;;;7.03;73.07;99145.55;466947;112;923217;-73
2022/02/18 04:26:35;;;;;;;32.83;19.81;;;;;;;7.03;73.05;99156.39;467252;112;923052;-76
2022/02/18 04:27:38;;;;;;;42.46;23.20;;;;;;;7.05;73.07;99153.47;466193;111;922742;-75
2022/02/18 04:28:41;;;;;;;45.24;23.12;;;;;;;7.06;73.07;99153.22;465138;111;923002;-75
2022/02/18 04:29:45;;;;;;;48.13;25.72;;;;;;;7.07;73.04;99168.43;466608;112;922856;-73
2022/02/18 04:30:48;;;;;;;51.08;25.14;;;;;;;7.07;73.09;99160.30;467783;112;922588;-76
2022/02/18 04:31:51;;;;;;;59.17;27.21;;;;;;;7.09;73.15;99162.80;468624;112;923316;-75
2022/02/18 04:32:54;;;;;;;52.54;26.99;;;;;;;7.10;73.13;99167.99;465916;112;922518;-77
2022/02/18 04:33:57;;;;;;;56.71;27.97;;;;;;;7.11;73.12;99166.91;467795;112;922499;-76
2022/02/18 04:35:01;;;;;;;54.79;28.59;;;;;;;7.13;73.03;99161.27;466267;112;922642;-76
2022/02/18 04:36:04;;;;;;;61.44;28.89;;;;;;;7.13;72.97;99170.23;467323;112;922566;-76
2022/02/18 04:37:07;;;;;;;64.87;29.42;;;;;;;7.14;72.97;99165.64;467632;111;922700;-76
2022/02/18 04:38:11;;;;;;;58.04;28.27;;;;;;;7.16;72.91;99171.67;467696;112;922472;-76
2022/02/18 04:39:14;;;;;;;60.86;29.91;;;;;;;7.18;72.90;99172.26;468716;111;923026;-76
2022/02/18 04:40:20;;;;;;;61.82;28.14;;;;;;;7.19;72.79;99173.92;465942;111;923137;-75
2022/02/18 04:41:24;;;;;;;67.13;31.37;;;;;;;7.20;72.74;99174.75;467923;111;930511;-74
2022/02/18 04:42:29;;;;;;;66.06;29.38;;;;;;;7.20;72.70;99172.04;467775;112;922703;-75
2022/02/18 04:43:32;;;;;;;68.41;30.58;;;;;;;7.20;72.69;99172.88;468805;111;922648;-73
2022/02/18 04:44:35;;;;;;;67.92;31.29;;;;;;;7.21;72.71;99170.99;468757;112;923062;-77
2022/02/18 04:45:38;;;;;;;70.17;30.19;;;;;;;7.23;72.67;99177.83;467233;112;922971;-76
2022/02/18 04:46:44;;;;;;;61.15;28.21;;;;;;;7.25;72.60;99164.88;468618;112;923086;-77
2022/02/18 04:47:49;;;;;;;61.42;26.27;;;;;;;7.25;72.46;99167.59;467111;111;923044;-74
2022/02/18 04:48:54;;;;;;;56.81;26.23;;;;;;;7.26;72.51;99166.55;466563;112;922334;-74
2022/02/18 04:49:57;;;;;;;40.98;21.34;;;;;;;7.27;72.56;99164.66;467842;112;922788;-75
2022/02/18 04:51:00;;;;;;;42.99;22.95;;;;;;;7.28;72.47;99169.84;468693;112;922907;-75
2022/02/18 04:52:05;;;;;;;39.05;21.62;;;;;;;7.28;72.48;99166.30;466523;112;922325;-75
2022/02/18 04:53:08;;;;;;;32.33;18.43;;;;;;;7.29;72.42;99163.36;468915;111;922544;-76
2022/02/18 04:54:13;;;;;;;25.25;17.18;;;;;;;7.30;72.37;99159.60;466805;112;922923;-76
2022/02/18 04:55:16;;;;;;;26.91;15.61;;;;;;;7.30;72.40;99161.48;465299;112;923666;-77
2022/02/18 04:56:20;;;;;;;22.76;15.73;;;;;;;7.30;72.43;99173.16;469030;111;922406;-76
2022/02/18 04:57:23;;;;;;;19.26;14.72;;;;;;;7.32;72.39;99165.63;467224;112;922353;-76